sensor_id;sensor_type;location;lat;lon;timestamp;P1;durP1;ratioP1;P2;durP2;ratioP2
23680;SDS011;62915;50.832;4.462;2022-08-21T00:01:48;10.10;;;2.20;;
23680;SDS011;62915;50.832;4.462;2022-08-21T00:04:14;6.90;;;2.55;;
23680;SDS011;62915;50.832;4.462;2022-08-21T00:06:40;9.48;;;2.63;;
23680;SDS011;62915;50.832;4.462;2022-08-21T00:09:06;3.00;;;2.03;;
23680;SDS011;62915;50.832;4.462;2022-08-21T00:11:34;6.72;;;2.42;;
23680;SDS011;62915;50.832;4.462;2022-08-21T00:14:01;6.53;;;2.42;;
23680;SDS011;62915;50.832;4.462;2022-08-21T00:16:27;10.27;;;2.42;;
23680;SDS011;62915;50.832;4.462;2022-08-21T00:18:53;8.48;;;2.45;;
23680;SDS011;62915;50.832;4.462;2022-08-21T00:21:19;6.28;;;2.50;;
23680;SDS011;62915;50.832;4.462;2022-08-21T00:23:45;5.55;;;2.05;;
23680;SDS011;62915;50.832;4.462;2022-08-21T00:26:10;6.15;;;2.42;;
23680;SDS011;62915;50.832;4.462;2022-08-21T00:28:36;6.15;;;2.63;;
23680;SDS011;62915;50.832;4.462;2022-08-21T00:31:02;9.43;;;2.65;;
23680;SDS011;62915;50.832;4.462;2022-08-21T00:33:29;8.25;;;2.63;;
23680;SDS011;62915;50.832;4.462;2022-08-21T00:35:56;8.00;;;2.35;;
23680;SDS011;62915;50.832;4.462;2022-08-21T00:38:22;10.70;;;2.85;;
23680;SDS011;62915;50.832;4.462;2022-08-21T00:40:52;5.32;;;2.00;;
23680;SDS011;62915;50.832;4.462;2022-08-21T00:43:21;4.88;;;1.80;;
23680;SDS011;62915;50.832;4.462;2022-08-21T00:45:49;8.98;;;2.28;;
23680;SDS011;62915;50.832;4.462;2022-08-21T00:48:15;6.80;;;2.45;;
23680;SDS011;62915;50.832;4.462;2022-08-21T00:50:44;10.25;;;2.35;;
23680;SDS011;62915;50.832;4.462;2022-08-21T00:53:15;6.30;;;1.98;;
23680;SDS011;62915;50.832;4.462;2022-08-21T00:55:42;7.68;;;2.85;;
23680;SDS011;62915;50.832;4.462;2022-08-21T00:58:09;7.88;;;2.35;;
23680;SDS011;62915;50.832;4.462;2022-08-21T01:00:38;6.80;;;2.45;;
23680;SDS011;62915;50.832;4.462;2022-08-21T01:03:10;6.68;;;2.17;;
23680;SDS011;62915;50.832;4.462;2022-08-21T01:05:39;8.43;;;2.37;;
23680;SDS011;62915;50.832;4.462;2022-08-21T01:08:06;8.02;;;2.47;;
23680;SDS011;62915;50.832;4.462;2022-08-21T01:10:33;7.35;;;2.30;;
23680;SDS011;62915;50.832;4.462;2022-08-21T01:13:00;8.25;;;2.40;;
23680;SDS011;62915;50.832;4.462;2022-08-21T01:15:27;8.18;;;2.17;;
23680;SDS011;62915;50.832;4.462;2022-08-21T01:17:56;7.53;;;2.35;;
23680;SDS011;62915;50.832;4.462;2022-08-21T01:20:22;4.85;;;2.10;;
23680;SDS011;62915;50.832;4.462;2022-08-21T01:22:48;8.38;;;2.33;;
23680;SDS011;62915;50.832;4.462;2022-08-21T01:25:15;10.73;;;2.78;;
23680;SDS011;62915;50.832;4.462;2022-08-21T01:27:46;10.07;;;2.67;;
23680;SDS011;62915;50.832;4.462;2022-08-21T01:30:14;8.32;;;2.53;;
23680;SDS011;62915;50.832;4.462;2022-08-21T01:32:44;8.93;;;2.58;;
23680;SDS011;62915;50.832;4.462;2022-08-21T01:35:13;7.82;;;2.58;;
23680;SDS011;62915;50.832;4.462;2022-08-21T01:37:40;6.00;;;2.25;;
23680;SDS011;62915;50.832;4.462;2022-08-21T01:40:07;8.07;;;2.42;;
23680;SDS011;62915;50.832;4.462;2022-08-21T01:42:33;8.82;;;2.60;;
23680;SDS011;62915;50.832;4.462;2022-08-21T01:45:00;5.05;;;2.10;;
23680;SDS011;62915;50.832;4.462;2022-08-21T01:47:25;5.38;;;2.20;;
23680;SDS011;62915;50.832;4.462;2022-08-21T01:49:51;8.40;;;2.33;;
23680;SDS011;62915;50.832;4.462;2022-08-21T01:52:17;4.63;;;1.88;;
23680;SDS011;62915;50.832;4.462;2022-08-21T01:54:44;5.15;;;2.53;;
23680;SDS011;62915;50.832;4.462;2022-08-21T01:57:11;8.18;;;2.45;;
23680;SDS011;62915;50.832;4.462;2022-08-21T01:59:38;13.70;;;3.13;;
23680;SDS011;62915;50.832;4.462;2022-08-21T02:02:04;9.68;;;2.72;;
23680;SDS011;62915;50.832;4.462;2022-08-21T02:04:30;8.23;;;2.88;;
23680;SDS011;62915;50.832;4.462;2022-08-21T02:06:57;5.97;;;2.47;;
23680;SDS011;62915;50.832;4.462;2022-08-21T02:09:24;6.63;;;2.33;;
23680;SDS011;62915;50.832;4.462;2022-08-21T02:11:50;10.05;;;2.75;;
23680;SDS011;62915;50.832;4.462;2022-08-21T02:14:16;5.75;;;2.08;;
23680;SDS011;62915;50.832;4.462;2022-08-21T02:16:43;4.55;;;2.08;;
23680;SDS011;62915;50.832;4.462;2022-08-21T02:19:09;6.10;;;2.08;;
23680;SDS011;62915;50.832;4.462;2022-08-21T02:21:36;6.68;;;1.90;;
23680;SDS011;62915;50.832;4.462;2022-08-21T02:24:02;7.70;;;2.40;;
23680;SDS011;62915;50.832;4.462;2022-08-21T02:26:28;11.43;;;2.35;;
23680;SDS011;62915;50.832;4.462;2022-08-21T02:28:54;7.93;;;2.60;;
23680;SDS011;62915;50.832;4.462;2022-08-21T02:31:20;8.07;;;2.55;;
23680;SDS011;62915;50.832;4.462;2022-08-21T02:33:46;5.07;;;1.73;;
23680;SDS011;62915;50.832;4.462;2022-08-21T02:36:12;6.80;;;2.30;;
23680;SDS011;62915;50.832;4.462;2022-08-21T02:38:38;5.32;;;1.88;;
23680;SDS011;62915;50.832;4.462;2022-08-21T02:41:06;7.25;;;1.85;;
23680;SDS011;62915;50.832;4.462;2022-08-21T02:43:34;5.25;;;1.70;;
23680;SDS011;62915;50.832;4.462;2022-08-21T02:46:00;7.32;;;2.10;;
23680;SDS011;62915;50.832;4.462;2022-08-21T02:48:29;5.97;;;2.28;;
23680;SDS011;62915;50.832;4.462;2022-08-21T02:50:57;5.40;;;2.00;;
23680;SDS011;62915;50.832;4.462;2022-08-21T02:53:26;5.22;;;2.20;;
23680;SDS011;62915;50.832;4.462;2022-08-21T02:55:53;6.63;;;2.00;;
23680;SDS011;62915;50.832;4.462;2022-08-21T02:58:21;9.65;;;1.95;;
23680;SDS011;62915;50.832;4.462;2022-08-21T03:00:49;4.75;;;1.67;;
23680;SDS011;62915;50.832;4.462;2022-08-21T03:03:15;6.85;;;1.85;;
23680;SDS011;62915;50.832;4.462;2022-08-21T03:05:41;9.82;;;2.40;;
23680;SDS011;62915;50.832;4.462;2022-08-21T03:08:08;6.97;;;2.15;;
23680;SDS011;62915;50.832;4.462;2022-08-21T03:10:40;6.57;;;1.80;;
23680;SDS011;62915;50.832;4.462;2022-08-21T03:13:08;7.80;;;2.15;;
23680;SDS011;62915;50.832;4.462;2022-08-21T03:15:35;8.68;;;1.98;;
23680;SDS011;62915;50.832;4.462;2022-08-21T03:18:01;6.85;;;2.00;;
23680;SDS011;62915;50.832;4.462;2022-08-21T03:20:28;4.28;;;1.50;;
23680;SDS011;62915;50.832;4.462;2022-08-21T03:22:57;6.43;;;2.00;;
23680;SDS011;62915;50.832;4.462;2022-08-21T03:25:24;7.57;;;1.90;;
23680;SDS011;62915;50.832;4.462;2022-08-21T03:27:50;5.35;;;1.50;;
23680;SDS011;62915;50.832;4.462;2022-08-21T03:30:17;2.28;;;1.63;;
23680;SDS011;62915;50.832;4.462;2022-08-21T03:32:45;9.65;;;2.10;;
23680;SDS011;62915;50.832;4.462;2022-08-21T03:35:11;7.28;;;1.60;;
23680;SDS011;62915;50.832;4.462;2022-08-21T03:37:38;3.38;;;1.45;;
23680;SDS011;62915;50.832;4.462;2022-08-21T03:40:05;7.60;;;1.80;;
23680;SDS011;62915;50.832;4.462;2022-08-21T03:42:32;8.23;;;1.75;;
23680;SDS011;62915;50.832;4.462;2022-08-21T03:44:58;3.08;;;1.67;;
23680;SDS011;62915;50.832;4.462;2022-08-21T03:47:24;5.45;;;1.75;;
23680;SDS011;62915;50.832;4.462;2022-08-21T03:49:50;6.63;;;1.75;;
23680;SDS011;62915;50.832;4.462;2022-08-21T03:52:16;6.35;;;2.00;;
23680;SDS011;62915;50.832;4.462;2022-08-21T03:54:42;5.72;;;1.42;;
23680;SDS011;62915;50.832;4.462;2022-08-21T03:57:09;5.78;;;1.52;;
23680;SDS011;62915;50.832;4.462;2022-08-21T03:59:35;4.97;;;1.80;;
23680;SDS011;62915;50.832;4.462;2022-08-21T04:02:02;6.20;;;1.48;;
23680;SDS011;62915;50.832;4.462;2022-08-21T04:04:29;3.80;;;1.70;;
23680;SDS011;62915;50.832;4.462;2022-08-21T04:06:56;6.03;;;1.67;;
23680;SDS011;62915;50.832;4.462;2022-08-21T04:09:22;5.25;;;1.67;;
23680;SDS011;62915;50.832;4.462;2022-08-21T04:11:49;7.28;;;2.00;;
23680;SDS011;62915;50.832;4.462;2022-08-21T04:14:15;6.30;;;2.00;;
23680;SDS011;62915;50.832;4.462;2022-08-21T04:16:41;7.78;;;2.03;;
23680;SDS011;62915;50.832;4.462;2022-08-21T04:19:08;4.95;;;2.50;;
23680;SDS011;62915;50.832;4.462;2022-08-21T04:21:37;12.40;;;2.22;;
23680;SDS011;62915;50.832;4.462;2022-08-21T04:24:04;6.10;;;1.88;;
23680;SDS011;62915;50.832;4.462;2022-08-21T04:26:30;5.57;;;1.58;;
23680;SDS011;62915;50.832;4.462;2022-08-21T04:28:57;6.15;;;1.63;;
23680;SDS011;62915;50.832;4.462;2022-08-21T04:31:23;6.60;;;1.50;;
23680;SDS011;62915;50.832;4.462;2022-08-21T04:33:49;5.00;;;1.70;;
23680;SDS011;62915;50.832;4.462;2022-08-21T04:36:16;6.85;;;2.00;;
23680;SDS011;62915;50.832;4.462;2022-08-21T04:38:42;5.57;;;1.90;;
23680;SDS011;62915;50.832;4.462;2022-08-21T04:41:08;4.70;;;1.33;;
23680;SDS011;62915;50.832;4.462;2022-08-21T04:43:34;9.32;;;1.90;;
23680;SDS011;62915;50.832;4.462;2022-08-21T04:46:00;4.30;;;1.60;;
23680;SDS011;62915;50.832;4.462;2022-08-21T04:48:25;8.32;;;2.15;;
23680;SDS011;62915;50.832;4.462;2022-08-21T04:54:23;7.22;;;1.70;;
23680;SDS011;62915;50.832;4.462;2022-08-21T04:56:41;7.78;;;1.80;;
23680;SDS011;62915;50.832;4.462;2022-08-21T04:59:24;7.90;;;2.22;;
23680;SDS011;62915;50.832;4.462;2022-08-21T05:01:53;5.80;;;1.90;;
23680;SDS011;62915;50.832;4.462;2022-08-21T05:04:22;5.40;;;1.90;;
23680;SDS011;62915;50.832;4.462;2022-08-21T05:06:51;2.28;;;1.50;;
23680;SDS011;62915;50.832;4.462;2022-08-21T05:09:20;7.53;;;2.17;;
23680;SDS011;62915;50.832;4.462;2022-08-21T05:11:46;5.22;;;1.88;;
23680;SDS011;62915;50.832;4.462;2022-08-21T05:14:14;4.85;;;1.80;;
23680;SDS011;62915;50.832;4.462;2022-08-21T05:16:41;9.82;;;1.95;;
23680;SDS011;62915;50.832;4.462;2022-08-21T05:19:08;5.95;;;1.83;;
23680;SDS011;62915;50.832;4.462;2022-08-21T05:21:35;4.15;;;1.67;;
23680;SDS011;62915;50.832;4.462;2022-08-21T05:24:03;10.40;;;2.10;;
23680;SDS011;62915;50.832;4.462;2022-08-21T05:26:29;6.07;;;1.98;;
23680;SDS011;62915;50.832;4.462;2022-08-21T05:28:55;5.38;;;1.73;;
23680;SDS011;62915;50.832;4.462;2022-08-21T05:31:21;5.72;;;2.00;;
23680;SDS011;62915;50.832;4.462;2022-08-21T05:33:47;6.30;;;1.92;;
23680;SDS011;62915;50.832;4.462;2022-08-21T05:36:13;5.30;;;1.60;;
23680;SDS011;62915;50.832;4.462;2022-08-21T05:38:39;5.28;;;1.92;;
23680;SDS011;62915;50.832;4.462;2022-08-21T05:41:05;6.28;;;1.83;;
23680;SDS011;62915;50.832;4.462;2022-08-21T05:43:32;6.38;;;1.67;;
23680;SDS011;62915;50.832;4.462;2022-08-21T05:46:01;4.40;;;1.85;;
23680;SDS011;62915;50.832;4.462;2022-08-21T05:48:27;7.50;;;1.80;;
23680;SDS011;62915;50.832;4.462;2022-08-21T05:50:53;9.93;;;1.88;;
23680;SDS011;62915;50.832;4.462;2022-08-21T05:53:20;7.13;;;2.00;;
23680;SDS011;62915;50.832;4.462;2022-08-21T05:55:47;6.72;;;2.33;;
23680;SDS011;62915;50.832;4.462;2022-08-21T05:58:15;3.80;;;1.98;;
23680;SDS011;62915;50.832;4.462;2022-08-21T06:00:43;7.32;;;2.13;;
23680;SDS011;62915;50.832;4.462;2022-08-21T06:03:22;8.20;;;1.60;;
23680;SDS011;62915;50.832;4.462;2022-08-21T06:05:50;6.97;;;2.30;;
23680;SDS011;62915;50.832;4.462;2022-08-21T06:08:17;7.53;;;1.83;;
23680;SDS011;62915;50.832;4.462;2022-08-21T06:10:43;5.38;;;1.67;;
23680;SDS011;62915;50.832;4.462;2022-08-21T06:13:10;5.72;;;1.95;;
23680;SDS011;62915;50.832;4.462;2022-08-21T06:15:36;10.13;;;2.35;;
23680;SDS011;62915;50.832;4.462;2022-08-21T06:18:03;7.70;;;1.83;;
23680;SDS011;62915;50.832;4.462;2022-08-21T06:20:29;7.35;;;1.85;;
23680;SDS011;62915;50.832;4.462;2022-08-21T06:22:55;5.57;;;1.60;;
23680;SDS011;62915;50.832;4.462;2022-08-21T06:25:21;5.03;;;1.73;;
23680;SDS011;62915;50.832;4.462;2022-08-21T06:27:47;5.85;;;1.50;;
23680;SDS011;62915;50.832;4.462;2022-08-21T06:30:12;5.63;;;2.00;;
23680;SDS011;62915;50.832;4.462;2022-08-21T06:32:38;7.05;;;1.80;;
23680;SDS011;62915;50.832;4.462;2022-08-21T06:35:05;5.97;;;1.67;;
23680;SDS011;62915;50.832;4.462;2022-08-21T06:37:31;5.80;;;1.70;;
23680;SDS011;62915;50.832;4.462;2022-08-21T06:39:57;8.07;;;1.70;;
23680;SDS011;62915;50.832;4.462;2022-08-21T06:42:23;6.13;;;1.90;;
23680;SDS011;62915;50.832;4.462;2022-08-21T06:44:49;6.13;;;1.90;;
23680;SDS011;62915;50.832;4.462;2022-08-21T06:47:15;5.30;;;1.80;;
23680;SDS011;62915;50.832;4.462;2022-08-21T06:49:41;7.03;;;1.63;;
23680;SDS011;62915;50.832;4.462;2022-08-21T06:52:10;11.90;;;2.15;;
23680;SDS011;62915;50.832;4.462;2022-08-21T06:54:37;6.00;;;1.52;;
23680;SDS011;62915;50.832;4.462;2022-08-21T06:57:03;8.88;;;1.88;;
23680;SDS011;62915;50.832;4.462;2022-08-21T06:59:29;7.65;;;1.85;;
23680;SDS011;62915;50.832;4.462;2022-08-21T07:01:56;8.85;;;2.03;;
23680;SDS011;62915;50.832;4.462;2022-08-21T07:04:22;6.07;;;1.52;;
23680;SDS011;62915;50.832;4.462;2022-08-21T07:06:48;9.25;;;2.08;;
23680;SDS011;62915;50.832;4.462;2022-08-21T07:09:14;7.70;;;2.22;;
23680;SDS011;62915;50.832;4.462;2022-08-21T07:11:39;9.60;;;2.05;;
23680;SDS011;62915;50.832;4.462;2022-08-21T07:14:06;6.80;;;1.95;;
23680;SDS011;62915;50.832;4.462;2022-08-21T07:16:32;10.20;;;1.70;;
23680;SDS011;62915;50.832;4.462;2022-08-21T07:18:57;9.48;;;1.85;;
23680;SDS011;62915;50.832;4.462;2022-08-21T07:21:23;5.53;;;1.50;;
23680;SDS011;62915;50.832;4.462;2022-08-21T07:23:50;10.10;;;2.10;;
23680;SDS011;62915;50.832;4.462;2022-08-21T07:26:18;2.80;;;1.17;;
23680;SDS011;62915;50.832;4.462;2022-08-21T07:28:46;5.90;;;1.65;;
23680;SDS011;62915;50.832;4.462;2022-08-21T07:31:13;8.25;;;2.15;;
23680;SDS011;62915;50.832;4.462;2022-08-21T07:33:42;9.07;;;1.83;;
23680;SDS011;62915;50.832;4.462;2022-08-21T07:36:08;8.75;;;1.80;;
23680;SDS011;62915;50.832;4.462;2022-08-21T07:38:34;10.10;;;2.15;;
23680;SDS011;62915;50.832;4.462;2022-08-21T07:41:00;9.70;;;1.73;;
23680;SDS011;62915;50.832;4.462;2022-08-21T07:43:32;7.63;;;1.60;;
23680;SDS011;62915;50.832;4.462;2022-08-21T07:45:57;7.10;;;1.85;;
23680;SDS011;62915;50.832;4.462;2022-08-21T07:48:25;10.75;;;1.83;;
23680;SDS011;62915;50.832;4.462;2022-08-21T07:50:53;10.93;;;2.10;;
23680;SDS011;62915;50.832;4.462;2022-08-21T07:53:25;9.85;;;1.92;;
23680;SDS011;62915;50.832;4.462;2022-08-21T07:55:50;8.73;;;1.60;;
23680;SDS011;62915;50.832;4.462;2022-08-21T07:58:16;9.65;;;2.22;;
23680;SDS011;62915;50.832;4.462;2022-08-21T08:00:42;8.38;;;1.77;;
23680;SDS011;62915;50.832;4.462;2022-08-21T08:03:07;8.57;;;1.63;;
23680;SDS011;62915;50.832;4.462;2022-08-21T08:05:33;8.70;;;1.67;;
23680;SDS011;62915;50.832;4.462;2022-08-21T08:08:02;7.20;;;1.92;;
23680;SDS011;62915;50.832;4.462;2022-08-21T08:10:28;6.13;;;1.95;;
23680;SDS011;62915;50.832;4.462;2022-08-21T08:12:54;8.57;;;2.08;;
23680;SDS011;62915;50.832;4.462;2022-08-21T08:15:22;10.25;;;1.70;;
23680;SDS011;62915;50.832;4.462;2022-08-21T08:17:50;6.65;;;2.03;;
23680;SDS011;62915;50.832;4.462;2022-08-21T08:20:16;10.27;;;1.98;;
23680;SDS011;62915;50.832;4.462;2022-08-21T08:22:43;8.38;;;1.98;;
23680;SDS011;62915;50.832;4.462;2022-08-21T08:25:10;12.85;;;2.05;;
23680;SDS011;62915;50.832;4.462;2022-08-21T08:27:38;13.27;;;2.53;;
23680;SDS011;62915;50.832;4.462;2022-08-21T08:30:05;10.70;;;2.33;;
23680;SDS011;62915;50.832;4.462;2022-08-21T08:32:33;9.52;;;2.20;;
23680;SDS011;62915;50.832;4.462;2022-08-21T08:35:00;10.20;;;2.28;;
23680;SDS011;62915;50.832;4.462;2022-08-21T08:37:26;7.22;;;1.83;;
23680;SDS011;62915;50.832;4.462;2022-08-21T08:39:52;6.82;;;1.73;;
23680;SDS011;62915;50.832;4.462;2022-08-21T08:42:21;9.57;;;1.85;;
23680;SDS011;62915;50.832;4.462;2022-08-21T08:44:58;6.32;;;1.75;;
23680;SDS011;62915;50.832;4.462;2022-08-21T08:47:26;8.02;;;1.83;;
23680;SDS011;62915;50.832;4.462;2022-08-21T08:52:52;14.52;;;2.03;;
23680;SDS011;62915;50.832;4.462;2022-08-21T08:55:26;8.63;;;1.90;;
23680;SDS011;62915;50.832;4.462;2022-08-21T08:57:57;8.03;;;1.77;;
23680;SDS011;62915;50.832;4.462;2022-08-21T09:00:23;9.80;;;1.55;;
23680;SDS011;62915;50.832;4.462;2022-08-21T09:02:51;7.72;;;1.70;;
23680;SDS011;62915;50.832;4.462;2022-08-21T09:05:28;8.63;;;1.75;;
23680;SDS011;62915;50.832;4.462;2022-08-21T09:13:34;6.60;;;1.70;;
23680;SDS011;62915;50.832;4.462;2022-08-21T09:21:51;6.85;;;1.60;;
23680;SDS011;62915;50.832;4.462;2022-08-21T09:29:35;9.85;;;2.10;;
23680;SDS011;62915;50.832;4.462;2022-08-21T09:32:10;9.90;;;2.05;;
23680;SDS011;62915;50.832;4.462;2022-08-21T09:34:54;7.03;;;1.65;;
23680;SDS011;62915;50.832;4.462;2022-08-21T09:37:28;8.32;;;2.00;;
23680;SDS011;62915;50.832;4.462;2022-08-21T09:39:55;5.82;;;1.73;;
23680;SDS011;62915;50.832;4.462;2022-08-21T09:42:26;5.78;;;1.67;;
23680;SDS011;62915;50.832;4.462;2022-08-21T09:45:08;7.30;;;2.22;;
23680;SDS011;62915;50.832;4.462;2022-08-21T09:50:12;8.43;;;2.35;;
23680;SDS011;62915;50.832;4.462;2022-08-21T09:52:57;5.85;;;1.75;;
23680;SDS011;62915;50.832;4.462;2022-08-21T09:58:15;6.25;;;1.85;;
23680;SDS011;62915;50.832;4.462;2022-08-21T10:00:42;10.05;;;1.92;;
23680;SDS011;62915;50.832;4.462;2022-08-21T10:03:14;11.00;;;2.08;;
23680;SDS011;62915;50.832;4.462;2022-08-21T10:05:53;5.57;;;1.77;;
23680;SDS011;62915;50.832;4.462;2022-08-21T10:08:31;9.50;;;2.65;;
23680;SDS011;62915;50.832;4.462;2022-08-21T10:13:42;7.03;;;1.90;;
23680;SDS011;62915;50.832;4.462;2022-08-21T10:22:08;7.40;;;2.20;;
23680;SDS011;62915;50.832;4.462;2022-08-21T10:30:12;5.78;;;2.03;;
23680;SDS011;62915;50.832;4.462;2022-08-21T10:36:02;8.40;;;1.98;;
23680;SDS011;62915;50.832;4.462;2022-08-21T10:38:32;9.90;;;2.22;;
23680;SDS011;62915;50.832;4.462;2022-08-21T10:44:16;10.63;;;2.20;;
23680;SDS011;62915;50.832;4.462;2022-08-21T10:47:08;10.48;;;2.00;;
23680;SDS011;62915;50.832;4.462;2022-08-21T10:49:58;3.83;;;1.67;;
23680;SDS011;62915;50.832;4.462;2022-08-21T10:57:55;13.13;;;2.65;;
23680;SDS011;62915;50.832;4.462;2022-08-21T11:00:35;9.00;;;2.20;;
23680;SDS011;62915;50.832;4.462;2022-08-21T11:06:16;4.82;;;2.00;;
23680;SDS011;62915;50.832;4.462;2022-08-21T11:08:59;5.25;;;2.38;;
23680;SDS011;62915;50.832;4.462;2022-08-21T11:11:35;11.27;;;3.67;;
23680;SDS011;62915;50.832;4.462;2022-08-21T11:14:20;12.23;;;3.63;;
23680;SDS011;62915;50.832;4.462;2022-08-21T11:17:09;10.07;;;3.67;;
23680;SDS011;62915;50.832;4.462;2022-08-21T11:24:59;13.88;;;3.72;;
23680;SDS011;62915;50.832;4.462;2022-08-21T11:27:52;9.30;;;2.85;;
23680;SDS011;62915;50.832;4.462;2022-08-21T11:30:40;7.80;;;2.50;;
23680;SDS011;62915;50.832;4.462;2022-08-21T11:35:55;8.52;;;2.30;;
23680;SDS011;62915;50.832;4.462;2022-08-21T11:51:53;10.05;;;2.30;;
23680;SDS011;62915;50.832;4.462;2022-08-21T11:54:33;9.88;;;2.60;;
23680;SDS011;62915;50.832;4.462;2022-08-21T11:57:14;6.57;;;2.20;;
23680;SDS011;62915;50.832;4.462;2022-08-21T12:03:27;8.90;;;2.13;;
23680;SDS011;62915;50.832;4.462;2022-08-21T12:05:39;7.60;;;1.90;;
23680;SDS011;62915;50.832;4.462;2022-08-21T12:08:13;8.85;;;2.70;;
23680;SDS011;62915;50.832;4.462;2022-08-21T12:11:03;8.48;;;2.30;;
23680;SDS011;62915;50.832;4.462;2022-08-21T12:14:18;9.10;;;2.33;;
23680;SDS011;62915;50.832;4.462;2022-08-21T12:16:32;9.57;;;3.78;;
23680;SDS011;62915;50.832;4.462;2022-08-21T12:19:11;13.57;;;2.97;;
23680;SDS011;62915;50.832;4.462;2022-08-21T12:21:53;11.80;;;3.53;;
23680;SDS011;62915;50.832;4.462;2022-08-21T12:24:30;10.20;;;2.20;;
23680;SDS011;62915;50.832;4.462;2022-08-21T12:27:19;9.05;;;3.88;;
23680;SDS011;62915;50.832;4.462;2022-08-21T12:29:51;8.23;;;2.40;;
23680;SDS011;62915;50.832;4.462;2022-08-21T12:32:42;13.65;;;3.13;;
23680;SDS011;62915;50.832;4.462;2022-08-21T12:35:21;10.10;;;2.70;;
23680;SDS011;62915;50.832;4.462;2022-08-21T12:38:06;6.45;;;2.40;;
23680;SDS011;62915;50.832;4.462;2022-08-21T12:40:49;9.68;;;2.10;;
23680;SDS011;62915;50.832;4.462;2022-08-21T12:43:24;10.32;;;2.30;;
23680;SDS011;62915;50.832;4.462;2022-08-21T12:45:59;11.75;;;2.72;;
23680;SDS011;62915;50.832;4.462;2022-08-21T12:51:17;9.38;;;2.78;;
23680;SDS011;62915;50.832;4.462;2022-08-21T12:53:56;9.82;;;2.20;;
23680;SDS011;62915;50.832;4.462;2022-08-21T12:56:26;7.43;;;2.40;;
23680;SDS011;62915;50.832;4.462;2022-08-21T12:59:01;9.15;;;2.47;;
23680;SDS011;62915;50.832;4.462;2022-08-21T13:04:02;9.35;;;2.50;;
23680;SDS011;62915;50.832;4.462;2022-08-21T13:06:37;6.70;;;2.00;;
23680;SDS011;62915;50.832;4.462;2022-08-21T13:09:07;11.57;;;2.25;;
23680;SDS011;62915;50.832;4.462;2022-08-21T13:11:36;10.73;;;2.13;;
23680;SDS011;62915;50.832;4.462;2022-08-21T13:14:04;7.95;;;2.47;;
23680;SDS011;62915;50.832;4.462;2022-08-21T13:16:29;12.55;;;2.85;;
23680;SDS011;62915;50.832;4.462;2022-08-21T13:18:58;5.93;;;2.10;;
23680;SDS011;62915;50.832;4.462;2022-08-21T13:21:34;11.55;;;2.30;;
23680;SDS011;62915;50.832;4.462;2022-08-21T13:26:51;5.90;;;2.13;;
23680;SDS011;62915;50.832;4.462;2022-08-21T13:29:20;9.27;;;2.03;;
23680;SDS011;62915;50.832;4.462;2022-08-21T13:31:48;9.05;;;2.35;;
23680;SDS011;62915;50.832;4.462;2022-08-21T13:34:14;13.45;;;3.10;;
23680;SDS011;62915;50.832;4.462;2022-08-21T13:36:42;7.57;;;2.10;;
23680;SDS011;62915;50.832;4.462;2022-08-21T13:39:12;7.35;;;2.28;;
23680;SDS011;62915;50.832;4.462;2022-08-21T13:41:42;7.60;;;2.30;;
23680;SDS011;62915;50.832;4.462;2022-08-21T13:44:17;6.75;;;1.90;;
23680;SDS011;62915;50.832;4.462;2022-08-21T13:46:44;6.22;;;1.90;;
23680;SDS011;62915;50.832;4.462;2022-08-21T13:49:12;5.53;;;1.70;;
23680;SDS011;62915;50.832;4.462;2022-08-21T13:51:41;9.80;;;2.05;;
23680;SDS011;62915;50.832;4.462;2022-08-21T13:54:16;7.72;;;2.10;;
23680;SDS011;62915;50.832;4.462;2022-08-21T13:56:51;6.78;;;2.17;;
23680;SDS011;62915;50.832;4.462;2022-08-21T13:59:25;8.35;;;2.20;;
23680;SDS011;62915;50.832;4.462;2022-08-21T14:01:57;6.68;;;1.92;;
23680;SDS011;62915;50.832;4.462;2022-08-21T14:04:33;9.00;;;2.92;;
23680;SDS011;62915;50.832;4.462;2022-08-21T14:07:02;7.85;;;2.28;;
23680;SDS011;62915;50.832;4.462;2022-08-21T14:09:40;12.60;;;1.80;;
23680;SDS011;62915;50.832;4.462;2022-08-21T14:12:19;11.73;;;2.42;;
23680;SDS011;62915;50.832;4.462;2022-08-21T14:15:01;6.07;;;1.85;;
23680;SDS011;62915;50.832;4.462;2022-08-21T14:17:31;7.57;;;2.50;;
23680;SDS011;62915;50.832;4.462;2022-08-21T14:19:59;6.07;;;1.95;;
23680;SDS011;62915;50.832;4.462;2022-08-21T14:25:14;10.75;;;2.60;;
23680;SDS011;62915;50.832;4.462;2022-08-21T14:27:52;11.63;;;2.35;;
23680;SDS011;62915;50.832;4.462;2022-08-21T14:30:28;6.60;;;2.15;;
23680;SDS011;62915;50.832;4.462;2022-08-21T14:32:59;7.35;;;1.95;;
23680;SDS011;62915;50.832;4.462;2022-08-21T14:35:25;4.88;;;1.90;;
23680;SDS011;62915;50.832;4.462;2022-08-21T14:37:53;7.75;;;2.28;;
23680;SDS011;62915;50.832;4.462;2022-08-21T14:40:23;11.85;;;2.17;;
23680;SDS011;62915;50.832;4.462;2022-08-21T14:42:50;6.15;;;1.98;;
23680;SDS011;62915;50.832;4.462;2022-08-21T14:45:23;7.68;;;2.28;;
23680;SDS011;62915;50.832;4.462;2022-08-21T14:47:51;13.68;;;2.25;;
23680;SDS011;62915;50.832;4.462;2022-08-21T14:50:21;7.88;;;1.95;;
23680;SDS011;62915;50.832;4.462;2022-08-21T14:52:46;14.07;;;2.85;;
23680;SDS011;62915;50.832;4.462;2022-08-21T14:55:13;10.27;;;2.78;;
23680;SDS011;62915;50.832;4.462;2022-08-21T14:57:41;6.93;;;2.05;;
23680;SDS011;62915;50.832;4.462;2022-08-21T15:00:09;12.13;;;2.70;;
23680;SDS011;62915;50.832;4.462;2022-08-21T15:02:37;6.47;;;2.05;;
23680;SDS011;62915;50.832;4.462;2022-08-21T15:05:03;8.95;;;2.30;;
23680;SDS011;62915;50.832;4.462;2022-08-21T15:07:29;8.90;;;2.22;;
23680;SDS011;62915;50.832;4.462;2022-08-21T15:09:55;9.20;;;2.45;;
23680;SDS011;62915;50.832;4.462;2022-08-21T15:12:21;9.43;;;2.42;;
23680;SDS011;62915;50.832;4.462;2022-08-21T15:14:48;12.57;;;2.15;;
23680;SDS011;62915;50.832;4.462;2022-08-21T15:17:14;6.45;;;2.20;;
23680;SDS011;62915;50.832;4.462;2022-08-21T15:19:40;8.13;;;2.45;;
23680;SDS011;62915;50.832;4.462;2022-08-21T15:22:06;10.38;;;2.35;;
23680;SDS011;62915;50.832;4.462;2022-08-21T15:24:32;11.00;;;2.53;;
23680;SDS011;62915;50.832;4.462;2022-08-21T15:26:59;9.18;;;2.22;;
23680;SDS011;62915;50.832;4.462;2022-08-21T15:29:28;6.97;;;2.47;;
23680;SDS011;62915;50.832;4.462;2022-08-21T15:34:59;6.68;;;2.13;;
23680;SDS011;62915;50.832;4.462;2022-08-21T15:37:26;8.23;;;2.25;;
23680;SDS011;62915;50.832;4.462;2022-08-21T15:39:52;7.97;;;2.00;;
23680;SDS011;62915;50.832;4.462;2022-08-21T15:42:18;10.10;;;2.10;;
23680;SDS011;62915;50.832;4.462;2022-08-21T15:44:46;7.45;;;2.40;;
23680;SDS011;62915;50.832;4.462;2022-08-21T15:47:14;20.38;;;3.45;;
23680;SDS011;62915;50.832;4.462;2022-08-21T15:49:42;10.82;;;2.65;;
23680;SDS011;62915;50.832;4.462;2022-08-21T15:52:12;9.82;;;2.45;;
23680;SDS011;62915;50.832;4.462;2022-08-21T15:54:43;10.85;;;3.08;;
23680;SDS011;62915;50.832;4.462;2022-08-21T15:57:12;9.13;;;2.38;;
23680;SDS011;62915;50.832;4.462;2022-08-21T15:59:41;8.93;;;2.70;;
23680;SDS011;62915;50.832;4.462;2022-08-21T16:02:13;11.65;;;3.85;;
23680;SDS011;62915;50.832;4.462;2022-08-21T16:04:41;8.90;;;3.25;;
23680;SDS011;62915;50.832;4.462;2022-08-21T16:07:07;11.32;;;4.20;;
23680;SDS011;62915;50.832;4.462;2022-08-21T16:09:33;12.65;;;6.68;;
23680;SDS011;62915;50.832;4.462;2022-08-21T16:11:59;16.63;;;6.57;;
23680;SDS011;62915;50.832;4.462;2022-08-21T16:14:25;12.85;;;5.90;;
23680;SDS011;62915;50.832;4.462;2022-08-21T16:16:52;16.52;;;5.75;;
23680;SDS011;62915;50.832;4.462;2022-08-21T16:19:19;10.40;;;3.13;;
23680;SDS011;62915;50.832;4.462;2022-08-21T16:21:45;10.50;;;3.15;;
23680;SDS011;62915;50.832;4.462;2022-08-21T16:24:11;8.13;;;3.28;;
23680;SDS011;62915;50.832;4.462;2022-08-21T16:26:37;11.15;;;3.58;;
23680;SDS011;62915;50.832;4.462;2022-08-21T16:29:03;11.98;;;3.65;;
23680;SDS011;62915;50.832;4.462;2022-08-21T16:31:30;9.90;;;4.05;;
23680;SDS011;62915;50.832;4.462;2022-08-21T16:33:57;14.50;;;3.67;;